createdAt,value
2023-05-24T00:00:26.349Z,10.46
2023-05-24T00:02:53.685Z,10.38
2023-05-24T00:05:20.796Z,10.48
2023-05-24T00:07:51.683Z,10.46
2023-05-24T00:10:21.775Z,10.43
2023-05-24T00:12:49.283Z,10.33
2023-05-24T00:15:16.917Z,10.33
2023-05-24T00:17:44.262Z,10.31
2023-05-24T00:20:12.824Z,10.24
2023-05-24T00:22:41.018Z,10.25
2023-05-24T00:25:11.278Z,10.22
2023-05-24T00:27:40.949Z,10.16
2023-05-24T00:30:11.992Z,10.13
2023-05-24T00:32:38.739Z,10.11
2023-05-24T00:35:06.223Z,10.04
2023-05-24T00:37:33.898Z,10.02
2023-05-24T00:40:01.171Z,10.04
2023-05-24T00:42:28.637Z,10.00
2023-05-24T00:44:56.141Z,9.99
2023-05-24T00:47:23.986Z,9.96
2023-05-24T00:49:51.647Z,9.94
2023-05-24T00:52:19.760Z,9.97
2023-05-24T00:54:54.064Z,9.95
2023-05-24T00:57:24.625Z,9.95
2023-05-24T00:59:53.088Z,9.96
2023-05-24T01:02:21.026Z,9.93
2023-05-24T01:04:49.574Z,9.90
2023-05-24T01:07:27.072Z,9.82
2023-05-24T01:10:06.377Z,9.82
2023-05-24T01:13:04.994Z,9.80
2023-05-24T01:15:48.147Z,9.78
2023-05-24T01:18:33.100Z,9.77
2023-05-24T01:21:14.835Z,9.73
2023-05-24T01:23:56.075Z,9.76
2023-05-24T01:26:37.771Z,9.77
2023-05-24T01:29:09.017Z,9.74
2023-05-24T01:31:37.193Z,9.69
2023-05-24T01:34:07.439Z,9.61
2023-05-24T01:36:35.477Z,9.57
2023-05-24T01:39:06.766Z,9.62
2023-05-24T01:41:44.508Z,9.60
2023-05-24T01:44:45.059Z,9.56
2023-05-24T01:47:35.466Z,9.46
2023-05-24T01:50:36.546Z,9.43
2023-05-24T01:53:18.976Z,9.42
2023-05-24T01:55:52.200Z,9.34
2023-05-24T01:58:25.322Z,9.37
2023-05-24T02:00:54.297Z,9.40
2023-05-24T02:03:32.799Z,9.36
2023-05-24T02:06:03.132Z,9.33
2023-05-24T02:08:30.315Z,9.24
2023-05-24T02:10:58.002Z,9.28
2023-05-24T02:13:25.601Z,9.23
2023-05-24T02:15:56.425Z,9.25
2023-05-24T02:18:23.738Z,9.26
2023-05-24T02:20:51.811Z,9.21
2023-05-24T02:23:19.077Z,9.18
2023-05-24T02:25:45.890Z,9.11
2023-05-24T02:28:12.659Z,9.12
2023-05-24T02:30:40.097Z,9.16
2023-05-24T02:33:11.437Z,9.07
2023-05-24T02:35:38.726Z,9.08
2023-05-24T02:38:06.842Z,9.09
2023-05-24T02:40:37.431Z,9.01
2023-05-24T02:43:04.408Z,8.98
2023-05-24T02:45:31.923Z,8.93
2023-05-24T02:47:59.138Z,8.93
2023-05-24T02:50:26.074Z,8.93
2023-05-24T02:52:52.964Z,8.94
2023-05-24T02:55:19.965Z,8.96
2023-05-24T02:57:48.243Z,8.98
2023-05-24T03:00:15.824Z,8.99
2023-05-24T03:02:42.905Z,8.97
2023-05-24T03:05:10.045Z,8.96
2023-05-24T03:07:37.007Z,8.95
2023-05-24T03:10:04.527Z,9.00
2023-05-24T03:12:31.458Z,8.99
2023-05-24T03:15:01.288Z,8.99
2023-05-24T03:17:31.355Z,9.03
2023-05-24T03:20:02.756Z,9.06
2023-05-24T03:22:29.775Z,9.18
2023-05-24T03:24:57.895Z,9.20
2023-05-24T03:27:27.519Z,9.24
2023-05-24T03:29:54.605Z,9.32
2023-05-24T03:32:23.998Z,9.29
2023-05-24T03:34:58.253Z,9.30
2023-05-24T03:37:48.122Z,9.35
2023-05-24T03:43:59.171Z,9.45
2023-05-24T03:46:26.333Z,9.55
2023-05-24T03:48:56.522Z,9.64
2023-05-24T03:51:40.361Z,9.73
2023-05-24T03:54:07.534Z,9.75
2023-05-24T03:56:34.655Z,9.87
2023-05-24T03:59:04.310Z,9.99
2023-05-24T04:01:34.693Z,10.12
2023-05-24T04:04:12.872Z,10.29
2023-05-24T04:06:53.286Z,10.53
2023-05-24T04:09:23.258Z,10.79
2023-05-24T04:11:50.418Z,11.05
2023-05-24T04:14:20.808Z,11.33
2023-05-24T04:16:48.553Z,11.65
2023-05-24T04:19:16.088Z,12.04
2023-05-24T04:21:46.612Z,12.35
2023-05-24T04:24:13.526Z,12.69
2023-05-24T04:26:40.567Z,12.98
2023-05-24T04:29:08.001Z,13.28
2023-05-24T04:31:35.304Z,13.58
2023-05-24T04:34:03.324Z,13.84
2023-05-24T04:36:33.587Z,14.13
2023-05-24T04:39:06.890Z,14.47
2023-05-24T04:41:35.585Z,14.76
2023-05-24T04:44:05.737Z,15.11
2023-05-24T04:46:36.512Z,15.35
2023-05-24T04:49:03.917Z,15.57
2023-05-24T04:51:31.047Z,15.86
2023-05-24T04:54:09.687Z,16.10
2023-05-24T04:56:38.876Z,16.37
2023-05-24T04:59:09.900Z,16.66
2023-05-24T05:01:36.884Z,16.81
2023-05-24T05:04:06.620Z,16.97
2023-05-24T05:06:38.190Z,17.14
2023-05-24T05:09:13.425Z,17.23
2023-05-24T05:11:41.058Z,17.48
2023-05-24T05:14:11.830Z,17.58
2023-05-24T05:16:39.327Z,17.80
2023-05-24T05:19:06.512Z,18.00
2023-05-24T05:21:34.053Z,18.14
2023-05-24T05:24:01.747Z,18.29
2023-05-24T05:26:28.925Z,18.44
2023-05-24T05:28:56.132Z,18.58
2023-05-24T05:31:24.874Z,18.81
2023-05-24T05:33:54.478Z,18.98
2023-05-24T05:36:21.265Z,19.16
2023-05-24T05:38:48.017Z,19.37
2023-05-24T05:41:14.783Z,19.50
2023-05-24T05:43:41.861Z,19.70
2023-05-24T05:46:08.814Z,19.98
2023-05-24T05:48:35.807Z,20.30
2023-05-24T05:51:02.781Z,20.46
2023-05-24T05:53:29.607Z,20.65
2023-05-24T05:55:56.432Z,20.91
2023-05-24T05:58:23.230Z,20.99
2023-05-24T06:00:50.355Z,21.14
2023-05-24T06:03:17.604Z,21.34
2023-05-24T06:05:46.989Z,21.62
2023-05-24T06:08:13.973Z,21.96
2023-05-24T06:10:41.003Z,22.35
2023-05-24T06:13:07.871Z,22.61
2023-05-24T06:15:35.394Z,22.78
2023-05-24T06:18:05.362Z,23.06
2023-05-24T06:20:32.224Z,23.28
2023-05-24T06:22:59.225Z,23.41
2023-05-24T06:25:26.208Z,23.55
2023-05-24T06:27:53.068Z,23.71
2023-05-24T06:30:21.156Z,23.87
2023-05-24T06:32:48.156Z,23.88
2023-05-24T06:35:15.073Z,24.01
2023-05-24T06:37:44.803Z,24.17
2023-05-24T06:40:15.241Z,24.50
2023-05-24T06:42:42.032Z,24.58
2023-05-24T06:45:09.565Z,24.76
2023-05-24T06:47:37.106Z,24.73
2023-05-24T06:50:04.773Z,25.00
2023-05-24T06:52:31.517Z,25.24
2023-05-24T06:54:59.092Z,25.41
2023-05-24T06:57:27.070Z,25.65
2023-05-24T06:59:53.878Z,25.73
2023-05-24T07:02:27.309Z,26.07
2023-05-24T07:04:58.330Z,26.33
2023-05-24T07:07:25.791Z,26.47
2023-05-24T07:09:52.616Z,26.49
2023-05-24T07:12:19.711Z,26.48
2023-05-24T07:14:49.297Z,26.30
2023-05-24T07:17:16.452Z,26.30
2023-05-24T07:19:46.583Z,26.60
2023-05-24T07:22:13.704Z,26.78
2023-05-24T07:24:40.550Z,26.89
2023-05-24T07:27:07.602Z,27.00
2023-05-24T07:29:34.394Z,27.20
2023-05-24T07:32:01.260Z,27.38
2023-05-24T07:34:30.355Z,27.45
2023-05-24T07:37:01.014Z,27.74
2023-05-24T07:39:28.111Z,27.83
2023-05-24T07:41:55.135Z,27.75
2023-05-24T07:44:22.453Z,27.81
2023-05-24T07:46:49.201Z,28.02
2023-05-24T07:49:16.348Z,27.97
2023-05-24T07:51:43.303Z,27.68
2023-05-24T07:54:10.027Z,27.57
2023-05-24T07:56:38.038Z,27.69
2023-05-24T07:59:05.002Z,28.04
2023-05-24T08:01:32.743Z,28.19
2023-05-24T08:04:08.954Z,28.20
2023-05-24T08:06:36.470Z,28.44
2023-05-24T08:09:04.825Z,28.52
2023-05-24T08:11:31.601Z,28.71
2023-05-24T08:13:58.706Z,28.55
2023-05-24T08:16:29.195Z,28.65
2023-05-24T08:18:56.604Z,28.69
2023-05-24T08:21:23.713Z,28.47
2023-05-24T08:23:53.313Z,28.22
2023-05-24T08:26:29.934Z,28.23
2023-05-24T08:28:56.970Z,28.45
2023-05-24T08:31:24.001Z,28.65
2023-05-24T08:33:51.723Z,28.65
2023-05-24T08:36:27.571Z,28.28
2023-05-24T08:38:54.321Z,27.42
2023-05-24T08:41:21.591Z,27.19
2023-05-24T08:43:48.540Z,27.23
2023-05-24T08:46:17.446Z,27.05
2023-05-24T08:48:48.779Z,27.30
2023-05-24T08:51:16.999Z,27.61
2023-05-24T08:53:49.257Z,27.62
2023-05-24T08:56:19.515Z,27.69
2023-05-24T08:58:51.028Z,27.87
2023-05-24T09:01:18.919Z,28.22
2023-05-24T09:03:47.608Z,28.58
2023-05-24T09:06:20.534Z,28.72
2023-05-24T09:08:53.397Z,28.39
2023-05-24T09:11:23.853Z,28.48
2023-05-24T09:13:56.817Z,28.48
2023-05-24T09:16:25.465Z,28.39
2023-05-24T09:18:53.019Z,28.32
2023-05-24T09:21:20.827Z,28.03
2023-05-24T09:23:50.366Z,28.22
2023-05-24T09:26:18.251Z,28.35
2023-05-24T09:28:47.196Z,28.30
2023-05-24T09:31:14.611Z,28.01
2023-05-24T09:33:42.315Z,27.75
2023-05-24T09:36:23.073Z,27.82
2023-05-24T09:39:13.777Z,27.88
2023-05-24T09:41:44.069Z,27.80
2023-05-24T09:47:39.332Z,27.99
2023-05-24T09:52:59.659Z,28.03
2023-05-24T09:55:31.883Z,27.38
2023-05-24T09:58:18.329Z,27.16
2023-05-24T10:00:46.057Z,27.10
2023-05-24T10:03:15.754Z,27.00
2023-05-24T10:05:52.829Z,26.90
2023-05-24T10:08:23.183Z,26.86
2023-05-24T10:10:51.297Z,26.98
2023-05-24T10:13:19.628Z,26.93
2023-05-24T10:15:47.247Z,27.04
2023-05-24T10:18:14.852Z,27.39
2023-05-24T10:20:48.716Z,27.88
2023-05-24T10:23:24.804Z,28.04
2023-05-24T10:26:18.629Z,28.27
2023-05-24T10:28:50.148Z,28.29
2023-05-24T10:31:43.497Z,28.22
2023-05-24T10:34:12.590Z,28.14
2023-05-24T10:36:43.235Z,28.33
2023-05-24T10:39:46.328Z,28.41
2023-05-24T10:42:18.694Z,28.11
2023-05-24T10:44:46.257Z,28.11
2023-05-24T10:47:19.872Z,28.32
2023-05-24T10:49:58.062Z,28.71
2023-05-24T10:52:40.306Z,28.64
2023-05-24T10:55:12.055Z,28.82
2023-05-24T10:57:42.396Z,28.49
2023-05-24T11:00:47.904Z,28.13
2023-05-24T11:03:10.090Z,28.30
2023-05-24T11:05:51.962Z,28.22
2023-05-24T11:08:33.324Z,27.81
2023-05-24T11:11:22.506Z,27.56
2023-05-24T11:14:00.206Z,27.08
2023-05-24T11:16:40.609Z,26.88
2023-05-24T11:19:25.289Z,27.10
2023-05-24T11:21:54.015Z,27.44
2023-05-24T11:24:22.381Z,27.63
2023-05-24T11:26:51.272Z,27.78
2023-05-24T11:29:21.326Z,28.11
2023-05-24T11:31:49.812Z,28.01
2023-05-24T11:34:18.015Z,27.98
2023-05-24T11:36:46.447Z,28.06
2023-05-24T11:39:18.009Z,28.09
2023-05-24T11:41:45.062Z,27.69
2023-05-24T11:44:18.147Z,27.43
2023-05-24T11:46:45.805Z,27.52
2023-05-24T11:49:15.483Z,27.74
2023-05-24T11:51:47.253Z,27.99
2023-05-24T11:54:15.380Z,28.10
2023-05-24T11:56:43.381Z,28.08
2023-05-24T11:59:42.631Z,28.01
2023-05-24T12:02:13.588Z,27.84
2023-05-24T12:04:41.725Z,27.56
2023-05-24T12:07:13.658Z,27.63
2023-05-24T12:09:50.617Z,27.38
2023-05-24T12:12:33.922Z,27.63
2023-05-24T12:15:11.113Z,27.74
2023-05-24T12:17:39.489Z,27.81
2023-05-24T12:20:11.020Z,27.50
2023-05-24T12:22:54.445Z,27.44
2023-05-24T12:25:24.258Z,27.60
2023-05-24T12:27:57.218Z,27.82
2023-05-24T12:30:29.637Z,28.06
2023-05-24T12:32:58.811Z,28.11
2023-05-24T12:35:26.752Z,28.36
2023-05-24T12:38:02.894Z,28.18
2023-05-24T12:40:34.778Z,28.23
2023-05-24T12:43:04.570Z,28.17
2023-05-24T12:45:32.358Z,27.87
2023-05-24T12:48:03.489Z,27.93
2023-05-24T12:50:31.038Z,28.19
2023-05-24T12:53:33.125Z,28.52
2023-05-24T12:56:01.036Z,28.39
2023-05-24T12:58:27.813Z,28.31
2023-05-24T13:01:04.305Z,28.20
2023-05-24T13:03:31.885Z,27.89
2023-05-24T13:06:01.003Z,27.48
2023-05-24T13:08:30.280Z,27.17
2023-05-24T13:11:04.185Z,26.85
2023-05-24T13:13:41.897Z,26.90
2023-05-24T13:16:11.533Z,27.00
2023-05-24T13:18:48.786Z,27.20
2023-05-24T13:21:17.118Z,27.33
2023-05-24T13:23:52.848Z,27.21
2023-05-24T13:26:26.326Z,27.28
2023-05-24T13:31:33.805Z,27.26
2023-05-24T13:34:20.706Z,27.35
2023-05-24T13:36:49.677Z,27.51
2023-05-24T13:39:21.450Z,27.84
2023-05-24T13:41:50.459Z,28.02
2023-05-24T13:44:21.069Z,28.23
2023-05-24T13:46:48.519Z,28.27
2023-05-24T13:49:16.581Z,28.23
2023-05-24T13:51:44.671Z,28.29
2023-05-24T13:54:18.542Z,27.99
2023-05-24T13:56:49.624Z,27.86
2023-05-24T14:02:28.687Z,27.89
2023-05-24T14:05:05.215Z,27.73
2023-05-24T14:07:53.664Z,27.78
2023-05-24T14:10:31.076Z,27.68
2023-05-24T14:13:16.251Z,27.89
2023-05-24T14:15:55.459Z,27.95
2023-05-24T14:18:24.839Z,28.07
2023-05-24T14:20:55.226Z,27.93
2023-05-24T14:23:26.451Z,27.91
2023-05-24T14:26:06.831Z,27.96
2023-05-24T14:28:34.585Z,28.00
2023-05-24T14:31:07.583Z,27.95
2023-05-24T14:33:36.786Z,27.92
2023-05-24T14:36:04.376Z,27.86
2023-05-24T14:38:42.653Z,27.77
2023-05-24T14:41:10.787Z,27.75
2023-05-24T14:43:41.444Z,27.62
2023-05-24T14:46:12.566Z,27.56
2023-05-24T14:48:44.248Z,27.47
2023-05-24T14:51:15.122Z,27.36
2023-05-24T14:53:46.354Z,27.26
2023-05-24T14:56:16.672Z,27.10
2023-05-24T14:58:45.036Z,26.87
2023-05-24T15:01:13.576Z,26.88
2023-05-24T15:03:41.622Z,26.77
2023-05-24T15:06:13.952Z,26.59
2023-05-24T15:08:44.723Z,26.43
2023-05-24T15:11:18.519Z,26.47
2023-05-24T15:13:45.541Z,26.42
2023-05-24T15:16:13.071Z,26.40
2023-05-24T15:18:40.111Z,26.39
2023-05-24T15:21:07.036Z,26.35
2023-05-24T15:23:34.831Z,26.29
2023-05-24T15:26:02.143Z,26.27
2023-05-24T15:28:29.148Z,26.32
2023-05-24T15:30:58.981Z,26.29
2023-05-24T15:33:26.762Z,26.18
2023-05-24T15:35:58.454Z,26.02
2023-05-24T15:38:25.309Z,26.06
2023-05-24T15:40:56.540Z,26.01
2023-05-24T15:43:25.813Z,25.81
2023-05-24T15:45:53.696Z,25.70
2023-05-24T15:48:20.969Z,25.56
2023-05-24T15:51:25.638Z,25.41
2023-05-24T15:53:35.642Z,25.26
2023-05-24T15:56:04.755Z,25.20
2023-05-24T15:58:34.904Z,25.16
2023-05-24T16:01:02.298Z,25.01
2023-05-24T16:03:32.328Z,24.86
2023-05-24T16:05:59.578Z,24.61
2023-05-24T16:08:31.529Z,24.46
2023-05-24T16:10:58.955Z,24.39
2023-05-24T16:13:27.821Z,24.25
2023-05-24T16:15:58.876Z,24.05
2023-05-24T16:18:29.114Z,23.91
2023-05-24T16:20:58.039Z,23.83
2023-05-24T16:23:30.217Z,23.69
2023-05-24T16:26:06.081Z,23.56
2023-05-24T16:28:33.090Z,23.43
2023-05-24T16:31:02.564Z,23.26
2023-05-24T16:33:29.625Z,23.11
2023-05-24T16:35:57.035Z,22.98
2023-05-24T16:38:27.864Z,22.83
2023-05-24T16:40:54.975Z,22.65
2023-05-24T16:43:30.839Z,22.47
2023-05-24T16:45:58.032Z,22.30
2023-05-24T16:48:32.019Z,22.11
2023-05-24T16:51:00.493Z,21.89
2023-05-24T16:53:27.875Z,21.63
2023-05-24T16:55:56.522Z,21.46
2023-05-24T16:58:25.176Z,21.33
2023-05-24T17:00:56.108Z,21.20
2023-05-24T17:03:28.951Z,21.02
2023-05-24T17:06:02.028Z,20.91
2023-05-24T17:08:31.573Z,20.77
2023-05-24T17:10:59.164Z,20.66
2023-05-24T17:13:28.786Z,20.52
2023-05-24T17:15:57.549Z,20.32
2023-05-24T17:18:29.362Z,20.17
2023-05-24T17:21:01.473Z,20.05
2023-05-24T17:23:33.574Z,19.90
2023-05-24T17:26:03.191Z,19.77
2023-05-24T17:28:34.339Z,19.55
2023-05-24T17:31:05.056Z,19.41
2023-05-24T17:33:32.474Z,19.31
2023-05-24T17:36:04.930Z,19.21
2023-05-24T17:38:37.585Z,19.06
2023-05-24T17:41:07.869Z,18.98
2023-05-24T17:43:35.687Z,18.98
2023-05-24T17:46:04.174Z,18.80
2023-05-24T17:48:32.729Z,18.68
2023-05-24T17:51:01.335Z,18.55
2023-05-24T17:53:34.666Z,18.54
2023-05-24T17:56:03.527Z,18.37
2023-05-24T17:58:33.220Z,18.20
2023-05-24T18:01:00.915Z,18.17
2023-05-24T18:03:27.664Z,18.00
2023-05-24T18:05:54.554Z,17.89
2023-05-24T18:08:22.352Z,17.82
2023-05-24T18:10:49.152Z,17.71
2023-05-24T18:13:16.862Z,17.56
2023-05-24T18:15:47.009Z,17.49
2023-05-24T18:18:19.501Z,17.49
2023-05-24T18:20:47.287Z,17.40
2023-05-24T18:23:14.307Z,17.30
2023-05-24T18:25:44.335Z,17.05
2023-05-24T18:28:17.318Z,16.95
2023-05-24T18:30:45.195Z,16.93
2023-05-24T18:33:13.074Z,17.02
2023-05-24T18:35:40.422Z,16.99
2023-05-24T18:38:11.697Z,16.83
2023-05-24T18:40:39.619Z,16.73
2023-05-24T18:43:07.394Z,16.64
2023-05-24T18:46:02.993Z,16.57
2023-05-24T18:48:31.755Z,16.48
2023-05-24T18:50:59.198Z,16.41
2023-05-24T18:53:35.538Z,16.37
2023-05-24T18:56:08.961Z,16.31
2023-05-24T18:58:37.796Z,16.26
2023-05-24T19:01:09.760Z,16.21
2023-05-24T19:03:39.917Z,16.19
2023-05-24T19:06:08.102Z,16.19
2023-05-24T19:08:44.113Z,16.18
2023-05-24T19:11:12.049Z,16.09
2023-05-24T19:13:40.265Z,16.07
2023-05-24T19:16:17.951Z,16.00
2023-05-24T19:18:46.262Z,15.94
2023-05-24T19:21:13.829Z,15.88
2023-05-24T19:23:40.856Z,15.84
2023-05-24T19:26:11.951Z,15.81
2023-05-24T19:28:42.275Z,15.75
2023-05-24T19:31:10.029Z,15.72
2023-05-24T19:33:48.457Z,15.74
2023-05-24T19:36:24.261Z,15.58
2023-05-24T19:38:51.154Z,15.50
2023-05-24T19:41:18.757Z,15.47
2023-05-24T19:43:49.216Z,15.53
2023-05-24T19:46:16.697Z,15.53
2023-05-24T19:48:44.099Z,15.44
2023-05-24T19:51:13.619Z,15.46
2023-05-24T19:53:40.476Z,15.44
2023-05-24T19:56:07.601Z,15.40
2023-05-24T19:58:35.310Z,15.41
2023-05-24T20:01:02.315Z,15.36
2023-05-24T20:03:29.802Z,15.28
2023-05-24T20:05:58.533Z,15.20
2023-05-24T20:08:39.750Z,15.17
2023-05-24T20:11:07.792Z,15.16
2023-05-24T20:13:36.044Z,15.20
2023-05-24T20:16:14.971Z,15.12
2023-05-24T20:18:50.390Z,15.07
2023-05-24T20:21:20.299Z,15.04
2023-05-24T20:23:57.775Z,15.00
2023-05-24T20:26:27.343Z,14.97
2023-05-24T20:29:01.300Z,14.98
2023-05-24T20:31:29.964Z,14.93
2023-05-24T20:33:57.385Z,14.95
2023-05-24T20:36:25.232Z,14.88
2023-05-24T20:38:55.558Z,14.76
2023-05-24T20:41:23.552Z,14.73
2023-05-24T20:44:02.047Z,14.70
2023-05-24T20:46:29.715Z,14.65
2023-05-24T20:48:57.701Z,14.65
2023-05-24T20:51:25.745Z,14.53
2023-05-24T20:53:54.031Z,14.59
2023-05-24T20:56:23.386Z,14.55
2023-05-24T20:58:53.402Z,14.45
2023-05-24T21:01:21.309Z,14.39
2023-05-24T21:03:53.547Z,14.34
2023-05-24T21:06:21.147Z,14.22
2023-05-24T21:08:51.697Z,14.20
2023-05-24T21:11:19.868Z,14.16
2023-05-24T21:13:47.334Z,14.10
2023-05-24T21:16:14.778Z,14.04
2023-05-24T21:18:42.482Z,13.95
2023-05-24T21:21:13.291Z,13.98
2023-05-24T21:23:40.583Z,14.04
2023-05-24T21:26:11.272Z,13.96
2023-05-24T21:28:38.790Z,13.97
2023-05-24T21:31:07.380Z,13.89
2023-05-24T21:33:38.139Z,13.89
2023-05-24T21:36:05.650Z,13.87
2023-05-24T21:38:33.044Z,13.84
2023-05-24T21:41:00.656Z,13.81
2023-05-24T21:43:31.343Z,13.77
2023-05-24T21:45:58.545Z,13.70
2023-05-24T21:48:26.476Z,13.62
2023-05-24T21:50:53.611Z,13.55
2023-05-24T21:53:23.623Z,13.44
2023-05-24T21:55:51.200Z,13.43
2023-05-24T21:58:18.453Z,13.41
2023-05-24T22:00:45.742Z,13.36
2023-05-24T22:03:13.113Z,13.35
2023-05-24T22:05:42.881Z,13.34
2023-05-24T22:08:13.870Z,13.28
2023-05-24T22:10:41.285Z,13.26
2023-05-24T22:13:09.129Z,13.21
2023-05-24T22:15:36.750Z,13.19
2023-05-24T22:18:04.073Z,13.14
2023-05-24T22:20:32.560Z,13.05
2023-05-24T22:23:00.366Z,13.04
2023-05-24T22:25:27.832Z,13.02
2023-05-24T22:27:58.696Z,13.03
2023-05-24T22:30:26.760Z,12.99
2023-05-24T22:32:54.037Z,12.98
2023-05-24T22:35:24.278Z,12.89
2023-05-24T22:37:51.848Z,12.88
2023-05-24T22:40:19.310Z,12.88
2023-05-24T22:42:46.564Z,12.84
2023-05-24T22:45:14.540Z,12.87
2023-05-24T22:47:41.980Z,12.85
2023-05-24T22:50:10.322Z,12.82
2023-05-24T22:52:42.971Z,12.74
2023-05-24T22:55:13.940Z,12.72
2023-05-24T22:57:42.083Z,12.65
2023-05-24T23:00:10.057Z,12.58
2023-05-24T23:02:37.482Z,12.55
2023-05-24T23:05:05.798Z,12.49
2023-05-24T23:07:37.881Z,12.51
2023-05-24T23:10:05.920Z,12.46
2023-05-24T23:12:33.960Z,12.46
2023-05-24T23:15:06.006Z,12.46
2023-05-24T23:17:33.142Z,12.42
2023-05-24T23:20:00.876Z,12.31
2023-05-24T23:22:31.913Z,12.27
2023-05-24T23:25:00.145Z,12.25
2023-05-24T23:27:28.213Z,12.18
2023-05-24T23:29:55.887Z,12.16
2023-05-24T23:32:25.793Z,12.18
2023-05-24T23:34:53.657Z,12.15
2023-05-24T23:37:21.483Z,12.14
2023-05-24T23:39:55.125Z,12.17
2023-05-24T23:42:27.150Z,12.19
2023-05-24T23:45:17.552Z,12.13
2023-05-24T23:47:45.157Z,12.04
2023-05-24T23:50:17.783Z,12.01
2023-05-24T23:52:47.216Z,12.05
2023-05-24T23:55:23.194Z,12.04
2023-05-24T23:57:54.324Z,11.99
